sensor_id;sensor_type;location;lat;lon;timestamp;P1;durP1;ratioP1;P2;durP2;ratioP2
22320;SDS011;11328;53.928;18.522;2023-04-24T00:01:59;16.98;;;13.48;;
22320;SDS011;11328;53.928;18.522;2023-04-24T00:04:27;20.10;;;13.85;;
22320;SDS011;11328;53.928;18.522;2023-04-24T00:06:54;17.58;;;13.57;;
22320;SDS011;11328;53.928;18.522;2023-04-24T00:09:23;18.88;;;14.23;;
22320;SDS011;11328;53.928;18.522;2023-04-24T00:11:50;16.65;;;13.07;;
22320;SDS011;11328;53.928;18.522;2023-04-24T00:14:18;19.35;;;13.38;;
22320;SDS011;11328;53.928;18.522;2023-04-24T00:16:45;19.05;;;13.77;;
22320;SDS011;11328;53.928;18.522;2023-04-24T00:19:12;22.67;;;14.73;;
22320;SDS011;11328;53.928;18.522;2023-04-24T00:21:39;20.95;;;14.45;;
22320;SDS011;11328;53.928;18.522;2023-04-24T00:24:07;18.30;;;13.63;;
22320;SDS011;11328;53.928;18.522;2023-04-24T00:26:37;18.52;;;13.93;;
22320;SDS011;11328;53.928;18.522;2023-04-24T00:29:04;21.13;;;15.50;;
22320;SDS011;11328;53.928;18.522;2023-04-24T00:31:31;20.45;;;14.60;;
22320;SDS011;11328;53.928;18.522;2023-04-24T00:34:01;22.35;;;14.57;;
22320;SDS011;11328;53.928;18.522;2023-04-24T00:36:29;18.88;;;15.32;;
22320;SDS011;11328;53.928;18.522;2023-04-24T00:38:57;25.85;;;17.10;;
22320;SDS011;11328;53.928;18.522;2023-04-24T00:41:24;22.35;;;16.25;;
22320;SDS011;11328;53.928;18.522;2023-04-24T00:43:52;22.58;;;15.70;;
22320;SDS011;11328;53.928;18.522;2023-04-24T00:46:19;20.42;;;15.32;;
22320;SDS011;11328;53.928;18.522;2023-04-24T00:48:47;21.92;;;16.23;;
22320;SDS011;11328;53.928;18.522;2023-04-24T00:51:14;21.52;;;15.13;;
22320;SDS011;11328;53.928;18.522;2023-04-24T00:53:40;21.83;;;14.77;;
22320;SDS011;11328;53.928;18.522;2023-04-24T00:56:08;20.15;;;15.30;;
22320;SDS011;11328;53.928;18.522;2023-04-24T00:58:35;19.25;;;14.52;;
22320;SDS011;11328;53.928;18.522;2023-04-24T01:01:02;22.95;;;14.82;;
22320;SDS011;11328;53.928;18.522;2023-04-24T01:03:33;21.27;;;15.32;;
22320;SDS011;11328;53.928;18.522;2023-04-24T01:06:03;22.48;;;15.23;;
22320;SDS011;11328;53.928;18.522;2023-04-24T01:08:31;20.38;;;15.30;;
22320;SDS011;11328;53.928;18.522;2023-04-24T01:11:01;18.73;;;15.35;;
22320;SDS011;11328;53.928;18.522;2023-04-24T01:13:31;21.50;;;16.35;;
22320;SDS011;11328;53.928;18.522;2023-04-24T01:15:59;25.20;;;17.38;;
22320;SDS011;11328;53.928;18.522;2023-04-24T01:18:27;21.67;;;15.90;;
22320;SDS011;11328;53.928;18.522;2023-04-24T01:20:58;23.13;;;15.48;;
22320;SDS011;11328;53.928;18.522;2023-04-24T01:23:28;21.05;;;16.17;;
22320;SDS011;11328;53.928;18.522;2023-04-24T01:25:55;22.40;;;16.08;;
22320;SDS011;11328;53.928;18.522;2023-04-24T01:28:23;23.52;;;16.60;;
22320;SDS011;11328;53.928;18.522;2023-04-24T01:30:50;26.95;;;16.58;;
22320;SDS011;11328;53.928;18.522;2023-04-24T01:33:17;23.20;;;16.85;;
22320;SDS011;11328;53.928;18.522;2023-04-24T01:35:44;22.15;;;16.35;;
22320;SDS011;11328;53.928;18.522;2023-04-24T01:38:11;23.65;;;16.92;;
22320;SDS011;11328;53.928;18.522;2023-04-24T01:40:39;24.90;;;17.08;;
22320;SDS011;11328;53.928;18.522;2023-04-24T01:43:06;26.98;;;17.52;;
22320;SDS011;11328;53.928;18.522;2023-04-24T01:45:33;24.02;;;18.02;;
22320;SDS011;11328;53.928;18.522;2023-04-24T01:48:00;24.92;;;17.70;;
22320;SDS011;11328;53.928;18.522;2023-04-24T01:50:28;23.27;;;17.80;;
22320;SDS011;11328;53.928;18.522;2023-04-24T01:52:55;22.75;;;18.40;;
22320;SDS011;11328;53.928;18.522;2023-04-24T01:55:21;23.60;;;19.58;;
22320;SDS011;11328;53.928;18.522;2023-04-24T01:57:48;26.73;;;19.83;;
22320;SDS011;11328;53.928;18.522;2023-04-24T02:00:18;26.30;;;19.85;;
22320;SDS011;11328;53.928;18.522;2023-04-24T02:02:45;22.92;;;19.27;;
22320;SDS011;11328;53.928;18.522;2023-04-24T02:05:14;24.65;;;19.63;;
22320;SDS011;11328;53.928;18.522;2023-04-24T02:07:41;25.58;;;19.13;;
22320;SDS011;11328;53.928;18.522;2023-04-24T02:10:08;26.33;;;20.70;;
22320;SDS011;11328;53.928;18.522;2023-04-24T02:12:36;28.13;;;20.23;;
22320;SDS011;11328;53.928;18.522;2023-04-24T02:15:03;27.83;;;19.85;;
22320;SDS011;11328;53.928;18.522;2023-04-24T02:17:31;29.88;;;19.38;;
22320;SDS011;11328;53.928;18.522;2023-04-24T02:19:58;23.23;;;18.88;;
22320;SDS011;11328;53.928;18.522;2023-04-24T02:22:25;27.67;;;20.05;;
22320;SDS011;11328;53.928;18.522;2023-04-24T02:24:52;25.30;;;19.45;;
22320;SDS011;11328;53.928;18.522;2023-04-24T02:27:19;26.08;;;19.60;;
22320;SDS011;11328;53.928;18.522;2023-04-24T02:29:46;25.05;;;19.20;;
22320;SDS011;11328;53.928;18.522;2023-04-24T02:32:12;27.13;;;18.85;;
22320;SDS011;11328;53.928;18.522;2023-04-24T02:34:41;23.67;;;17.92;;
22320;SDS011;11328;53.928;18.522;2023-04-24T02:37:09;24.67;;;19.02;;
22320;SDS011;11328;53.928;18.522;2023-04-24T02:39:36;24.08;;;19.17;;
22320;SDS011;11328;53.928;18.522;2023-04-24T02:42:02;24.65;;;18.85;;
22320;SDS011;11328;53.928;18.522;2023-04-24T02:44:30;23.17;;;18.75;;
22320;SDS011;11328;53.928;18.522;2023-04-24T02:46:57;26.05;;;19.40;;
22320;SDS011;11328;53.928;18.522;2023-04-24T02:49:23;27.23;;;19.92;;
22320;SDS011;11328;53.928;18.522;2023-04-24T02:51:51;25.38;;;19.42;;
22320;SDS011;11328;53.928;18.522;2023-04-24T02:54:17;23.30;;;19.08;;
22320;SDS011;11328;53.928;18.522;2023-04-24T02:56:44;25.08;;;20.38;;
22320;SDS011;11328;53.928;18.522;2023-04-24T02:59:12;27.17;;;21.02;;
22320;SDS011;11328;53.928;18.522;2023-04-24T03:01:39;26.38;;;20.60;;
22320;SDS011;11328;53.928;18.522;2023-04-24T03:04:06;27.38;;;20.92;;
22320;SDS011;11328;53.928;18.522;2023-04-24T03:06:34;24.92;;;20.98;;
22320;SDS011;11328;53.928;18.522;2023-04-24T03:09:01;25.17;;;20.73;;
22320;SDS011;11328;53.928;18.522;2023-04-24T03:11:29;27.00;;;21.27;;
22320;SDS011;11328;53.928;18.522;2023-04-24T03:13:56;25.38;;;20.73;;
22320;SDS011;11328;53.928;18.522;2023-04-24T03:16:23;26.33;;;21.13;;
22320;SDS011;11328;53.928;18.522;2023-04-24T03:18:50;26.73;;;21.00;;
22320;SDS011;11328;53.928;18.522;2023-04-24T03:21:18;24.90;;;20.08;;
22320;SDS011;11328;53.928;18.522;2023-04-24T03:23:47;29.70;;;21.48;;
22320;SDS011;11328;53.928;18.522;2023-04-24T03:26:14;26.38;;;20.65;;
22320;SDS011;11328;53.928;18.522;2023-04-24T03:28:41;25.95;;;20.83;;
22320;SDS011;11328;53.928;18.522;2023-04-24T03:31:08;27.63;;;22.27;;
22320;SDS011;11328;53.928;18.522;2023-04-24T03:33:35;26.45;;;21.23;;
22320;SDS011;11328;53.928;18.522;2023-04-24T03:36:02;27.25;;;22.40;;
22320;SDS011;11328;53.928;18.522;2023-04-24T03:38:31;28.13;;;22.48;;
22320;SDS011;11328;53.928;18.522;2023-04-24T03:40:58;28.30;;;22.60;;
22320;SDS011;11328;53.928;18.522;2023-04-24T03:43:24;27.88;;;23.08;;
22320;SDS011;11328;53.928;18.522;2023-04-24T03:45:53;28.60;;;22.88;;
22320;SDS011;11328;53.928;18.522;2023-04-24T03:48:20;29.55;;;22.80;;
22320;SDS011;11328;53.928;18.522;2023-04-24T03:50:47;33.30;;;22.05;;
22320;SDS011;11328;53.928;18.522;2023-04-24T03:53:14;28.52;;;23.15;;
22320;SDS011;11328;53.928;18.522;2023-04-24T03:55:41;28.05;;;22.58;;
22320;SDS011;11328;53.928;18.522;2023-04-24T03:58:08;30.23;;;24.10;;
22320;SDS011;11328;53.928;18.522;2023-04-24T04:00:35;29.95;;;23.10;;
22320;SDS011;11328;53.928;18.522;2023-04-24T04:03:03;29.13;;;24.55;;
22320;SDS011;11328;53.928;18.522;2023-04-24T04:05:31;30.30;;;24.25;;
22320;SDS011;11328;53.928;18.522;2023-04-24T04:07:57;31.25;;;24.33;;
22320;SDS011;11328;53.928;18.522;2023-04-24T04:10:24;30.88;;;24.17;;
22320;SDS011;11328;53.928;18.522;2023-04-24T04:12:53;31.70;;;25.00;;
22320;SDS011;11328;53.928;18.522;2023-04-24T04:15:20;32.67;;;25.60;;
22320;SDS011;11328;53.928;18.522;2023-04-24T04:17:47;33.83;;;26.50;;
22320;SDS011;11328;53.928;18.522;2023-04-24T04:20:14;31.58;;;25.02;;
22320;SDS011;11328;53.928;18.522;2023-04-24T04:22:41;32.65;;;26.08;;
22320;SDS011;11328;53.928;18.522;2023-04-24T04:25:10;31.65;;;26.17;;
22320;SDS011;11328;53.928;18.522;2023-04-24T04:27:37;35.30;;;26.67;;
22320;SDS011;11328;53.928;18.522;2023-04-24T04:30:05;34.20;;;26.83;;
22320;SDS011;11328;53.928;18.522;2023-04-24T04:32:34;33.00;;;25.60;;
22320;SDS011;11328;53.928;18.522;2023-04-24T04:35:01;35.50;;;26.77;;
22320;SDS011;11328;53.928;18.522;2023-04-24T04:37:31;32.75;;;26.92;;
22320;SDS011;11328;53.928;18.522;2023-04-24T04:39:59;34.42;;;26.10;;
22320;SDS011;11328;53.928;18.522;2023-04-24T04:42:27;36.15;;;26.77;;
22320;SDS011;11328;53.928;18.522;2023-04-24T04:44:55;37.90;;;27.73;;
22320;SDS011;11328;53.928;18.522;2023-04-24T04:47:23;33.42;;;26.63;;
22320;SDS011;11328;53.928;18.522;2023-04-24T04:49:51;35.50;;;26.95;;
22320;SDS011;11328;53.928;18.522;2023-04-24T04:52:18;34.28;;;27.15;;
22320;SDS011;11328;53.928;18.522;2023-04-24T04:54:45;35.95;;;28.33;;
22320;SDS011;11328;53.928;18.522;2023-04-24T04:57:12;37.88;;;28.63;;
22320;SDS011;11328;53.928;18.522;2023-04-24T04:59:39;40.80;;;29.48;;
22320;SDS011;11328;53.928;18.522;2023-04-24T05:02:08;39.65;;;29.50;;
22320;SDS011;11328;53.928;18.522;2023-04-24T05:04:35;39.42;;;29.80;;
22320;SDS011;11328;53.928;18.522;2023-04-24T05:07:03;42.97;;;31.27;;
22320;SDS011;11328;53.928;18.522;2023-04-24T05:09:30;43.22;;;31.17;;
22320;SDS011;11328;53.928;18.522;2023-04-24T05:11:57;44.10;;;31.10;;
22320;SDS011;11328;53.928;18.522;2023-04-24T05:14:23;39.92;;;30.38;;
22320;SDS011;11328;53.928;18.522;2023-04-24T05:16:50;37.50;;;29.75;;
22320;SDS011;11328;53.928;18.522;2023-04-24T05:19:17;39.67;;;30.95;;
22320;SDS011;11328;53.928;18.522;2023-04-24T05:21:44;40.47;;;30.52;;
22320;SDS011;11328;53.928;18.522;2023-04-24T05:24:11;40.45;;;30.02;;
22320;SDS011;11328;53.928;18.522;2023-04-24T05:26:38;41.40;;;31.30;;
22320;SDS011;11328;53.928;18.522;2023-04-24T05:29:05;41.03;;;31.20;;
22320;SDS011;11328;53.928;18.522;2023-04-24T05:31:33;45.72;;;32.65;;
22320;SDS011;11328;53.928;18.522;2023-04-24T05:34:00;45.25;;;32.30;;
22320;SDS011;11328;53.928;18.522;2023-04-24T05:36:27;46.05;;;31.10;;
22320;SDS011;11328;53.928;18.522;2023-04-24T05:38:54;46.03;;;32.10;;
22320;SDS011;11328;53.928;18.522;2023-04-24T05:41:21;43.42;;;31.88;;
22320;SDS011;11328;53.928;18.522;2023-04-24T05:43:48;42.53;;;31.77;;
22320;SDS011;11328;53.928;18.522;2023-04-24T05:46:15;46.08;;;32.92;;
22320;SDS011;11328;53.928;18.522;2023-04-24T05:48:42;46.47;;;32.33;;
22320;SDS011;11328;53.928;18.522;2023-04-24T05:51:09;45.03;;;32.38;;
22320;SDS011;11328;53.928;18.522;2023-04-24T05:53:36;48.90;;;32.80;;
22320;SDS011;11328;53.928;18.522;2023-04-24T05:56:03;46.33;;;32.90;;
22320;SDS011;11328;53.928;18.522;2023-04-24T05:58:30;46.15;;;32.13;;
22320;SDS011;11328;53.928;18.522;2023-04-24T06:00:57;48.92;;;33.50;;
22320;SDS011;11328;53.928;18.522;2023-04-24T06:03:27;51.10;;;34.42;;
22320;SDS011;11328;53.928;18.522;2023-04-24T06:05:54;47.40;;;33.70;;
22320;SDS011;11328;53.928;18.522;2023-04-24T06:08:21;49.50;;;33.80;;
22320;SDS011;11328;53.928;18.522;2023-04-24T06:10:48;49.33;;;33.78;;
22320;SDS011;11328;53.928;18.522;2023-04-24T06:13:15;48.88;;;33.15;;
22320;SDS011;11328;53.928;18.522;2023-04-24T06:15:42;48.55;;;33.80;;
22320;SDS011;11328;53.928;18.522;2023-04-24T06:18:10;51.25;;;33.20;;
22320;SDS011;11328;53.928;18.522;2023-04-24T06:20:37;52.22;;;33.75;;
22320;SDS011;11328;53.928;18.522;2023-04-24T06:23:04;49.85;;;34.58;;
22320;SDS011;11328;53.928;18.522;2023-04-24T06:25:31;53.20;;;34.28;;
22320;SDS011;11328;53.928;18.522;2023-04-24T06:27:58;49.13;;;33.28;;
22320;SDS011;11328;53.928;18.522;2023-04-24T06:30:25;48.60;;;33.33;;
22320;SDS011;11328;53.928;18.522;2023-04-24T06:32:54;51.80;;;35.38;;
22320;SDS011;11328;53.928;18.522;2023-04-24T06:35:28;53.97;;;35.10;;
22320;SDS011;11328;53.928;18.522;2023-04-24T06:37:55;54.22;;;35.60;;
22320;SDS011;11328;53.928;18.522;2023-04-24T06:40:22;54.28;;;35.40;;
22320;SDS011;11328;53.928;18.522;2023-04-24T06:42:49;57.80;;;36.22;;
22320;SDS011;11328;53.928;18.522;2023-04-24T06:45:16;56.45;;;37.85;;
22320;SDS011;11328;53.928;18.522;2023-04-24T06:47:43;56.90;;;36.10;;
22320;SDS011;11328;53.928;18.522;2023-04-24T06:50:10;59.75;;;36.53;;
22320;SDS011;11328;53.928;18.522;2023-04-24T06:52:37;58.30;;;35.90;;
22320;SDS011;11328;53.928;18.522;2023-04-24T06:55:04;49.60;;;33.80;;
22320;SDS011;11328;53.928;18.522;2023-04-24T06:57:32;51.20;;;33.88;;
22320;SDS011;11328;53.928;18.522;2023-04-24T06:59:59;56.63;;;34.20;;
22320;SDS011;11328;53.928;18.522;2023-04-24T07:02:27;54.72;;;35.03;;
22320;SDS011;11328;53.928;18.522;2023-04-24T07:04:54;54.00;;;34.47;;
22320;SDS011;11328;53.928;18.522;2023-04-24T07:07:21;53.03;;;35.55;;
22320;SDS011;11328;53.928;18.522;2023-04-24T07:09:50;59.17;;;36.85;;
22320;SDS011;11328;53.928;18.522;2023-04-24T07:12:17;58.35;;;37.50;;
22320;SDS011;11328;53.928;18.522;2023-04-24T07:14:46;57.08;;;36.45;;
22320;SDS011;11328;53.928;18.522;2023-04-24T07:17:14;58.33;;;38.03;;
22320;SDS011;11328;53.928;18.522;2023-04-24T07:19:41;55.88;;;36.78;;
22320;SDS011;11328;53.928;18.522;2023-04-24T07:22:08;57.78;;;36.65;;
22320;SDS011;11328;53.928;18.522;2023-04-24T07:24:37;49.15;;;34.72;;
22320;SDS011;11328;53.928;18.522;2023-04-24T07:27:04;53.63;;;35.10;;
22320;SDS011;11328;53.928;18.522;2023-04-24T07:29:31;49.80;;;35.60;;
22320;SDS011;11328;53.928;18.522;2023-04-24T07:31:58;48.55;;;34.55;;
22320;SDS011;11328;53.928;18.522;2023-04-24T07:34:28;49.10;;;34.10;;
22320;SDS011;11328;53.928;18.522;2023-04-24T07:36:55;43.13;;;31.52;;
22320;SDS011;11328;53.928;18.522;2023-04-24T07:39:22;42.25;;;31.77;;
22320;SDS011;11328;53.928;18.522;2023-04-24T07:41:50;44.95;;;31.63;;
22320;SDS011;11328;53.928;18.522;2023-04-24T07:44:16;43.28;;;32.67;;
22320;SDS011;11328;53.928;18.522;2023-04-24T07:46:43;40.75;;;30.38;;
22320;SDS011;11328;53.928;18.522;2023-04-24T07:49:13;41.88;;;30.75;;
22320;SDS011;11328;53.928;18.522;2023-04-24T07:51:44;39.72;;;29.92;;
22320;SDS011;11328;53.928;18.522;2023-04-24T07:54:12;41.58;;;30.42;;
22320;SDS011;11328;53.928;18.522;2023-04-24T07:56:40;40.97;;;30.55;;
22320;SDS011;11328;53.928;18.522;2023-04-24T07:59:09;41.67;;;31.42;;
22320;SDS011;11328;53.928;18.522;2023-04-24T08:01:37;43.13;;;31.17;;
22320;SDS011;11328;53.928;18.522;2023-04-24T08:04:04;44.88;;;31.55;;
22320;SDS011;11328;53.928;18.522;2023-04-24T08:06:32;39.47;;;30.60;;
22320;SDS011;11328;53.928;18.522;2023-04-24T08:08:59;45.33;;;30.90;;
22320;SDS011;11328;53.928;18.522;2023-04-24T08:11:27;38.55;;;28.92;;
22320;SDS011;11328;53.928;18.522;2023-04-24T08:13:54;40.55;;;31.20;;
22320;SDS011;11328;53.928;18.522;2023-04-24T08:16:21;37.47;;;28.83;;
22320;SDS011;11328;53.928;18.522;2023-04-24T08:18:50;35.72;;;25.92;;
22320;SDS011;11328;53.928;18.522;2023-04-24T08:21:17;32.67;;;26.35;;
22320;SDS011;11328;53.928;18.522;2023-04-24T08:23:45;36.40;;;26.08;;
22320;SDS011;11328;53.928;18.522;2023-04-24T08:26:13;33.00;;;26.85;;
22320;SDS011;11328;53.928;18.522;2023-04-24T08:28:40;35.28;;;26.58;;
22320;SDS011;11328;53.928;18.522;2023-04-24T08:31:07;32.50;;;26.35;;
22320;SDS011;11328;53.928;18.522;2023-04-24T08:33:34;33.90;;;25.98;;
22320;SDS011;11328;53.928;18.522;2023-04-24T08:36:04;30.90;;;24.83;;
22320;SDS011;11328;53.928;18.522;2023-04-24T08:38:32;28.42;;;23.30;;
22320;SDS011;11328;53.928;18.522;2023-04-24T08:41:01;31.80;;;23.52;;
22320;SDS011;11328;53.928;18.522;2023-04-24T08:43:28;28.33;;;22.67;;
22320;SDS011;11328;53.928;18.522;2023-04-24T08:45:55;29.45;;;24.27;;
22320;SDS011;11328;53.928;18.522;2023-04-24T08:48:25;33.53;;;25.45;;
22320;SDS011;11328;53.928;18.522;2023-04-24T08:50:57;34.30;;;23.33;;
22320;SDS011;11328;53.928;18.522;2023-04-24T08:53:25;31.02;;;24.50;;
22320;SDS011;11328;53.928;18.522;2023-04-24T08:55:53;32.35;;;23.10;;
22320;SDS011;11328;53.928;18.522;2023-04-24T08:58:24;33.83;;;26.98;;
22320;SDS011;11328;53.928;18.522;2023-04-24T09:00:56;28.42;;;23.58;;
22320;SDS011;11328;53.928;18.522;2023-04-24T09:03:24;27.67;;;22.63;;
22320;SDS011;11328;53.928;18.522;2023-04-24T09:05:54;30.80;;;22.98;;
22320;SDS011;11328;53.928;18.522;2023-04-24T09:08:24;28.27;;;22.90;;
22320;SDS011;11328;53.928;18.522;2023-04-24T09:10:52;28.45;;;23.67;;
22320;SDS011;11328;53.928;18.522;2023-04-24T09:13:19;29.73;;;23.88;;
22320;SDS011;11328;53.928;18.522;2023-04-24T09:15:47;28.70;;;21.95;;
22320;SDS011;11328;53.928;18.522;2023-04-24T09:18:14;26.38;;;22.60;;
22320;SDS011;11328;53.928;18.522;2023-04-24T09:21:00;30.95;;;22.25;;
22320;SDS011;11328;53.928;18.522;2023-04-24T09:23:34;30.52;;;21.50;;
22320;SDS011;11328;53.928;18.522;2023-04-24T09:26:01;28.58;;;21.17;;
22320;SDS011;11328;53.928;18.522;2023-04-24T09:28:34;25.80;;;20.95;;
22320;SDS011;11328;53.928;18.522;2023-04-24T09:31:06;27.92;;;21.42;;
22320;SDS011;11328;53.928;18.522;2023-04-24T09:33:57;24.63;;;20.73;;
22320;SDS011;11328;53.928;18.522;2023-04-24T09:36:36;26.13;;;21.25;;
22320;SDS011;11328;53.928;18.522;2023-04-24T09:39:05;34.22;;;20.50;;
22320;SDS011;11328;53.928;18.522;2023-04-24T09:41:49;26.98;;;19.70;;
22320;SDS011;11328;53.928;18.522;2023-04-24T09:46:50;16.17;;;12.05;;
22320;SDS011;11328;53.928;18.522;2023-04-24T09:52:06;16.70;;;11.35;;
22320;SDS011;11328;53.928;18.522;2023-04-24T09:54:36;17.67;;;10.55;;
22320;SDS011;11328;53.928;18.522;2023-04-24T09:57:04;15.95;;;10.90;;
22320;SDS011;11328;53.928;18.522;2023-04-24T09:59:34;17.02;;;9.50;;
22320;SDS011;11328;53.928;18.522;2023-04-24T10:02:02;14.20;;;9.27;;
22320;SDS011;11328;53.928;18.522;2023-04-24T10:04:55;13.30;;;9.05;;
22320;SDS011;11328;53.928;18.522;2023-04-24T10:07:26;16.40;;;8.82;;
22320;SDS011;11328;53.928;18.522;2023-04-24T10:09:53;16.42;;;8.65;;
22320;SDS011;11328;53.928;18.522;2023-04-24T10:12:21;16.65;;;8.63;;
22320;SDS011;11328;53.928;18.522;2023-04-24T10:14:49;14.55;;;8.15;;
22320;SDS011;11328;53.928;18.522;2023-04-24T10:17:17;15.75;;;8.55;;
22320;SDS011;11328;53.928;18.522;2023-04-24T10:19:47;15.43;;;8.75;;
22320;SDS011;11328;53.928;18.522;2023-04-24T10:22:14;12.43;;;8.43;;
22320;SDS011;11328;53.928;18.522;2023-04-24T10:24:43;14.73;;;8.25;;
22320;SDS011;11328;53.928;18.522;2023-04-24T10:27:14;14.15;;;7.85;;
22320;SDS011;11328;53.928;18.522;2023-04-24T10:29:43;13.30;;;7.90;;
22320;SDS011;11328;53.928;18.522;2023-04-24T10:32:13;12.90;;;8.30;;
22320;SDS011;11328;53.928;18.522;2023-04-24T10:34:40;15.13;;;8.18;;
22320;SDS011;11328;53.928;18.522;2023-04-24T10:37:08;12.98;;;7.95;;
22320;SDS011;11328;53.928;18.522;2023-04-24T10:39:36;11.10;;;7.78;;
22320;SDS011;11328;53.928;18.522;2023-04-24T10:42:24;15.02;;;8.45;;
22320;SDS011;11328;53.928;18.522;2023-04-24T10:44:54;14.90;;;8.45;;
22320;SDS011;11328;53.928;18.522;2023-04-24T10:47:22;13.10;;;8.02;;
22320;SDS011;11328;53.928;18.522;2023-04-24T10:49:50;12.77;;;7.30;;
22320;SDS011;11328;53.928;18.522;2023-04-24T10:52:18;11.00;;;7.28;;
22320;SDS011;11328;53.928;18.522;2023-04-24T10:54:46;13.90;;;7.47;;
22320;SDS011;11328;53.928;18.522;2023-04-24T11:02:36;15.50;;;8.05;;
22320;SDS011;11328;53.928;18.522;2023-04-24T11:05:06;11.60;;;7.82;;
22320;SDS011;11328;53.928;18.522;2023-04-24T11:10:43;18.35;;;8.05;;
22320;SDS011;11328;53.928;18.522;2023-04-24T11:13:16;10.63;;;6.93;;
22320;SDS011;11328;53.928;18.522;2023-04-24T11:16:11;11.73;;;6.78;;
22320;SDS011;11328;53.928;18.522;2023-04-24T11:18:59;14.32;;;6.93;;
22320;SDS011;11328;53.928;18.522;2023-04-24T11:21:44;10.38;;;5.70;;
22320;SDS011;11328;53.928;18.522;2023-04-24T11:27:07;13.27;;;5.90;;
22320;SDS011;11328;53.928;18.522;2023-04-24T11:32:24;11.20;;;5.82;;
22320;SDS011;11328;53.928;18.522;2023-04-24T11:34:54;12.43;;;5.85;;
22320;SDS011;11328;53.928;18.522;2023-04-24T11:37:27;11.38;;;5.60;;
22320;SDS011;11328;53.928;18.522;2023-04-24T11:42:27;11.88;;;5.18;;
22320;SDS011;11328;53.928;18.522;2023-04-24T11:44:59;9.52;;;5.40;;
22320;SDS011;11328;53.928;18.522;2023-04-24T11:47:29;9.27;;;5.18;;
22320;SDS011;11328;53.928;18.522;2023-04-24T11:49:59;8.52;;;5.03;;
22320;SDS011;11328;53.928;18.522;2023-04-24T11:52:28;10.27;;;5.28;;
22320;SDS011;11328;53.928;18.522;2023-04-24T11:54:57;9.48;;;5.60;;
22320;SDS011;11328;53.928;18.522;2023-04-24T11:57:25;11.48;;;6.10;;
22320;SDS011;11328;53.928;18.522;2023-04-24T11:59:55;11.82;;;6.53;;
22320;SDS011;11328;53.928;18.522;2023-04-24T12:02:22;9.98;;;6.05;;
22320;SDS011;11328;53.928;18.522;2023-04-24T12:04:52;10.80;;;6.20;;
22320;SDS011;11328;53.928;18.522;2023-04-24T12:07:20;10.90;;;5.82;;
22320;SDS011;11328;53.928;18.522;2023-04-24T12:09:54;11.52;;;6.00;;
22320;SDS011;11328;53.928;18.522;2023-04-24T12:12:25;14.57;;;6.47;;
22320;SDS011;11328;53.928;18.522;2023-04-24T12:14:55;10.07;;;6.50;;
22320;SDS011;11328;53.928;18.522;2023-04-24T12:17:25;13.73;;;6.70;;
22320;SDS011;11328;53.928;18.522;2023-04-24T12:22:42;12.20;;;6.97;;
22320;SDS011;11328;53.928;18.522;2023-04-24T12:25:14;10.65;;;7.25;;
22320;SDS011;11328;53.928;18.522;2023-04-24T12:27:44;10.35;;;6.00;;
22320;SDS011;11328;53.928;18.522;2023-04-24T12:30:13;11.23;;;7.20;;
22320;SDS011;11328;53.928;18.522;2023-04-24T12:32:46;12.70;;;6.93;;
22320;SDS011;11328;53.928;18.522;2023-04-24T12:35:19;10.75;;;6.50;;
22320;SDS011;11328;53.928;18.522;2023-04-24T12:37:49;11.50;;;6.57;;
22320;SDS011;11328;53.928;18.522;2023-04-24T12:40:17;16.95;;;6.05;;
22320;SDS011;11328;53.928;18.522;2023-04-24T12:42:46;9.93;;;5.88;;
22320;SDS011;11328;53.928;18.522;2023-04-24T12:45:16;11.43;;;5.38;;
22320;SDS011;11328;53.928;18.522;2023-04-24T12:47:46;13.02;;;5.30;;
22320;SDS011;11328;53.928;18.522;2023-04-24T12:50:15;10.48;;;5.30;;
22320;SDS011;11328;53.928;18.522;2023-04-24T12:52:43;8.13;;;5.00;;
22320;SDS011;11328;53.928;18.522;2023-04-24T12:55:10;8.13;;;5.00;;
22320;SDS011;11328;53.928;18.522;2023-04-24T12:57:38;8.73;;;5.03;;
22320;SDS011;11328;53.928;18.522;2023-04-24T13:00:06;9.30;;;5.47;;
22320;SDS011;11328;53.928;18.522;2023-04-24T13:02:38;11.30;;;5.50;;
22320;SDS011;11328;53.928;18.522;2023-04-24T13:05:06;9.88;;;5.10;;
22320;SDS011;11328;53.928;18.522;2023-04-24T13:07:33;10.90;;;5.45;;
22320;SDS011;11328;53.928;18.522;2023-04-24T13:10:01;8.48;;;4.88;;
22320;SDS011;11328;53.928;18.522;2023-04-24T13:12:28;10.52;;;5.10;;
22320;SDS011;11328;53.928;18.522;2023-04-24T13:14:55;29.80;;;5.93;;
22320;SDS011;11328;53.928;18.522;2023-04-24T13:17:24;8.20;;;4.70;;
22320;SDS011;11328;53.928;18.522;2023-04-24T13:19:53;22.83;;;6.05;;
22320;SDS011;11328;53.928;18.522;2023-04-24T13:22:21;11.63;;;4.97;;
22320;SDS011;11328;53.928;18.522;2023-04-24T13:24:48;8.88;;;5.40;;
22320;SDS011;11328;53.928;18.522;2023-04-24T13:27:16;11.00;;;5.97;;
22320;SDS011;11328;53.928;18.522;2023-04-24T13:29:43;8.98;;;5.00;;
22320;SDS011;11328;53.928;18.522;2023-04-24T13:32:12;9.80;;;5.10;;
22320;SDS011;11328;53.928;18.522;2023-04-24T13:34:40;11.77;;;5.72;;
22320;SDS011;11328;53.928;18.522;2023-04-24T13:37:07;12.95;;;5.63;;
22320;SDS011;11328;53.928;18.522;2023-04-24T13:39:34;10.43;;;5.85;;
22320;SDS011;11328;53.928;18.522;2023-04-24T13:42:02;11.10;;;5.18;;
22320;SDS011;11328;53.928;18.522;2023-04-24T13:44:30;12.88;;;5.25;;
22320;SDS011;11328;53.928;18.522;2023-04-24T13:46:59;9.50;;;5.30;;
22320;SDS011;11328;53.928;18.522;2023-04-24T13:49:27;9.35;;;5.35;;
22320;SDS011;11328;53.928;18.522;2023-04-24T13:51:54;9.35;;;5.47;;
22320;SDS011;11328;53.928;18.522;2023-04-24T13:54:22;24.80;;;6.28;;
22320;SDS011;11328;53.928;18.522;2023-04-24T13:56:52;13.35;;;5.85;;
22320;SDS011;11328;53.928;18.522;2023-04-24T13:59:22;11.20;;;5.60;;
22320;SDS011;11328;53.928;18.522;2023-04-24T14:01:48;15.55;;;6.50;;
22320;SDS011;11328;53.928;18.522;2023-04-24T14:04:18;9.52;;;6.03;;
22320;SDS011;11328;53.928;18.522;2023-04-24T14:06:46;11.93;;;6.47;;
22320;SDS011;11328;53.928;18.522;2023-04-24T14:09:12;11.93;;;6.70;;
22320;SDS011;11328;53.928;18.522;2023-04-24T14:11:39;10.95;;;6.03;;
22320;SDS011;11328;53.928;18.522;2023-04-24T14:14:07;16.02;;;5.68;;
22320;SDS011;11328;53.928;18.522;2023-04-24T14:16:35;10.25;;;5.25;;
22320;SDS011;11328;53.928;18.522;2023-04-24T14:19:02;10.20;;;5.60;;
22320;SDS011;11328;53.928;18.522;2023-04-24T14:21:29;10.77;;;5.65;;
22320;SDS011;11328;53.928;18.522;2023-04-24T14:23:56;10.05;;;6.00;;
22320;SDS011;11328;53.928;18.522;2023-04-24T14:26:23;10.50;;;5.80;;
22320;SDS011;11328;53.928;18.522;2023-04-24T14:28:53;14.10;;;5.40;;
22320;SDS011;11328;53.928;18.522;2023-04-24T14:31:36;13.88;;;5.82;;
22320;SDS011;11328;53.928;18.522;2023-04-24T14:34:03;8.02;;;5.30;;
22320;SDS011;11328;53.928;18.522;2023-04-24T14:36:30;9.60;;;5.43;;
22320;SDS011;11328;53.928;18.522;2023-04-24T14:39:00;10.52;;;5.20;;
22320;SDS011;11328;53.928;18.522;2023-04-24T14:41:32;9.70;;;5.40;;
22320;SDS011;11328;53.928;18.522;2023-04-24T14:44:03;69.00;;;8.23;;
22320;SDS011;11328;53.928;18.522;2023-04-24T14:46:31;11.23;;;5.05;;